MST,Max TemperatureF,Mean TemperatureF,Min TemperatureF,Max Dew PointF,MeanDew PointF,Min DewpointF,Max Humidity, Mean Humidity, Min Humidity, Max Sea Level PressureIn, Mean Sea Level PressureIn, Min Sea Level PressureIn, Max VisibilityMiles, Mean VisibilityMiles, Min VisibilityMiles, Max Wind SpeedMPH, Mean Wind SpeedMPH, Max Gust SpeedMPH,PrecipitationIn, CloudCover, Events, WindDirDegrees
2012-11-1,41,36,30,36,33,28,96,87,81,30.15,29.97,29.87,10,9,4,22,14,29,0.10,8,Rain,92
2012-11-2,41,37,33,37,33,30,97,88,79,30.22,30.07,29.96,10,7,1,15,7,22,0.06,8,Rain,359
2012-11-3,37,35,32,31,29,27,85,79,70,30.27,30.22,30.11,10,10,10,9,5,,T,8,,82
2012-11-4,46,37,28,39,33,27,100,89,68,30.34,30.16,29.99,10,8,4,20,7,,0.03,4,Rain,360
2012-11-5,65,49,32,44,34,30,100,85,47,30.24,30.07,29.81,10,6,0,29,6,39,T,5,Fog-Rain,94
2012-11-6,52,40,27,31,28,25,89,71,38,30.26,30.17,30.00,10,10,10,13,9,,0.00,2,,254
2012-11-7,56,44,31,39,33,26,79,67,51,29.98,29.80,29.66,10,10,8,14,7,23,0.00,2,,351
2012-11-8,39,34,28,32,28,26,93,85,70,30.18,30.10,30.00,10,5,0,24,13,29,0.05,8,Fog-Snow,52
2012-11-9,28,24,19,25,21,15,93,87,84,30.09,29.97,29.90,10,4,0,26,21,33,0.02,8,Fog-Rain-Snow,70
2012-11-10,19,13,7,16,10,2,93,81,73,30.11,29.97,29.91,10,3,0,18,11,,0.01,8,Fog-Snow,340
2012-11-11,14,5,-5,6,2,-8,84,76,70,30.27,30.14,29.96,10,7,2,20,13,26,T,5,Snow,275
2012-11-12,20,6,-8,16,7,-10,93,88,77,30.28,30.19,30.08,10,5,0,13,4,,T,5,Fog-Snow,259
2012-11-13,30,20,9,24,16,8,92,87,79,30.24,30.19,30.07,10,9,1,8,2,,0.00,1,,253
2012-11-14,35,21,7,28,13,5,100,89,78,30.34,30.11,30.02,10,5,0,10,1,,0.00,2,Fog,254
2012-11-15,32,19,5,26,13,3,100,88,75,30.43,30.30,30.11,10,6,0,8,4,,0.00,3,Fog,64
2012-11-16,39,26,13,29,21,12,100,88,73,30.14,30.05,29.95,10,9,2,6,1,,0.00,0,,48
2012-11-17,41,31,20,31,24,18,96,86,68,30.09,30.02,29.93,10,10,6,7,3,,0.00,1,,71
2012-11-18,40,31,21,32,26,20,92,85,76,30.08,29.89,29.80,10,10,7,10,6,,0.00,1,,104
2012-11-19,49,32,15,33,25,13,92,75,54,30.15,30.05,29.89,10,10,10,7,3,16,0.00,0,,98
2012-11-20,50,38,25,37,30,23,92,81,61,29.91,29.88,29.83,10,10,9,6,2,,0.00,0,,52
2012-11-21,42,34,25,35,31,25,100,90,79,29.88,29.76,29.65,10,9,2,10,3,,T,4,Snow,38
2012-11-22,34,22,9,30,15,5,87,75,63,30.68,30.29,29.85,10,10,5,24,11,32,T,5,Snow,307
2012-11-23,28,17,6,20,12,2,85,80,71,30.67,30.42,30.03,10,10,9,14,6,,0.00,3,,65
2012-11-24,40,30,19,31,24,17,92,84,70,30.11,29.99,29.84,10,10,8,17,4,,0.01,3,Rain,263
2012-11-25,22,13,4,19,12,2,93,82,62,30.45,30.20,30.00,10,8,0,18,6,,0.00,4,Fog,338
2012-11-26,30,19,8,25,15,3,93,87,79,30.43,30.29,30.12,10,8,0,8,3,,0.00,6,Fog,248
2012-11-27,28,21,13,25,16,10,93,87,79,30.28,30.19,30.09,10,5,0,8,2,,0.00,4,Fog,264
2012-11-28,35,25,14,28,17,12,93,86,72,30.20,30.10,29.99,10,9,6,14,5,,0.00,2,,69
2012-11-29,25,21,17,22,18,12,96,89,79,30.05,29.99,29.91,10,4,2,18,13,,T,6,,69
2012-11-30,36,27,17,32,24,14,100,88,73,29.98,29.77,29.61,10,7,1,9,6,,T,4,Rain,72